Time;durP1;ratioP1;P1;durP2;ratioP2;P2;SDS_P1;SDS_P2;PMS_P1;PMS_P2;Temp;Humidity;BMP_temperature;BMP_pressure;BME280_temperature;BME280_humidity;BME280_pressure;Samples;Min_cycle;Max_cycle;Signal;HPM_P1;HPM_P2
2021/07/26 00:00:52;;;;;;;;;;;;;;;22.65;57.92;99446.52;1892816;76;20204;-63
2021/07/26 00:03:27;;;;;;;;;;;;;;;22.62;57.99;99453.63;1873311;76;20101;-63
2021/07/26 00:06:09;;;;;;;;;;;;;;;22.60;57.97;99447.11;1872570;76;20093;-63
2021/07/26 00:08:43;;;;;;;;;;;;;;;22.60;58.07;99452.83;1873609;76;20216;-62
2021/07/26 00:11:19;;;;;;;;;;;;;;;22.56;58.24;99452.05;1873265;76;20093;-63
2021/07/26 00:13:54;;;;;;;;;;;;;;;22.55;58.28;99455.59;1892793;76;20097;-65
2021/07/26 00:16:29;;;;;;;;;;;;;;;22.52;58.57;99452.61;1873495;76;20208;-64
2021/07/26 00:19:03;;;;;;;;;;;;;;;22.50;58.48;99449.16;1873531;76;20204;-62
2021/07/26 00:21:38;;;;;;;;;;;;;;;22.48;58.52;99446.16;1892815;76;20093;-64
2021/07/26 00:24:12;;;;;;;;;;;;;;;22.47;58.60;99454.97;1873484;76;20094;-62
2021/07/26 00:26:48;;;;;;;;;;;;;;;22.46;58.71;99453.23;1873315;76;20101;-63
2021/07/26 00:29:42;;;;;;;;;;;;;;;22.45;58.84;99456.78;1870141;75;20132;-62
2021/07/26 00:32:17;;;;;;;;;;;;;;;22.42;58.88;99454.25;1873599;76;20097;-63
2021/07/26 00:34:51;;;;;;;;;;;;;;;22.40;58.95;99449.02;1873499;76;20209;-62
2021/07/26 00:37:27;;;;;;;;;;;;;;;22.38;59.20;99451.29;1873541;76;20093;-64
2021/07/26 00:40:08;;;;;;;;;;;;;;;22.36;59.17;99453.09;1892795;76;20458;-63
2021/07/26 00:42:37;;;;;;;;;;;;;;;22.32;59.45;99454.97;1873716;76;20204;-63
2021/07/26 00:45:12;;;;;;;;;;;;;;;22.29;59.59;99452.44;1873490;76;20098;-65
2021/07/26 00:47:47;;;;;;;;;;;;;;;22.24;59.70;99444.67;1873491;76;20093;-64
2021/07/26 00:50:21;;;;;;;;;;;;;;;22.21;59.92;99448.71;1873501;76;20094;-64
2021/07/26 00:52:56;;;;;;;;;;;;;;;22.15;60.08;99447.52;1892795;76;20097;-64
2021/07/26 00:55:30;;;;;;;;;;;;;;;22.11;60.38;99449.38;1873549;76;20411;-65
2021/07/26 00:58:05;;;;;;;;;;;;;;;22.10;60.51;99452.05;1892826;76;20093;-64
2021/07/26 01:00:39;;;;;;;;;;;;;;;22.04;60.70;99441.72;1873519;76;20093;-63
2021/07/26 01:03:20;;;;;;;;;;;;;;;22.00;60.97;99446.64;1892782;76;20212;-62
2021/07/26 01:05:54;;;;;;;;;;;;;;;21.96;61.15;99447.19;1873493;76;20097;-62
2021/07/26 01:08:29;;;;;;;;;;;;;;;21.93;61.38;99438.51;1873483;76;20093;-62
2021/07/26 01:11:04;;;;;;;;;;;;;;;21.87;61.58;99439.09;1873474;76;20462;-62
2021/07/26 01:13:38;;;;;;;;;;;;;;;21.85;61.64;99434.36;1873506;76;20212;-63
2021/07/26 01:16:32;;;;;;;;;;;;;;;21.82;61.56;99435.73;1892790;76;20450;-63
2021/07/26 01:19:07;;;;;;;;;;;;;;;21.82;61.36;99429.62;1873484;76;20204;-63
2021/07/26 01:21:44;;;;;;;;;;;;;;;21.82;61.50;99430.93;1892802;76;20100;-62
2021/07/26 01:24:18;;;;;;;;;;;;;;;21.82;61.58;99429.16;1873471;76;20447;-63
2021/07/26 01:26:53;;;;;;;;;;;;;;;21.83;61.48;99426.96;1873469;76;20352;-63
2021/07/26 01:29:27;;;;;;;;;;;;;;;21.83;61.02;99424.76;1853635;77;20099;-62
2021/07/26 01:32:02;;;;;;;;;;;;;;;21.84;61.11;99426.05;1892791;76;20097;-62
2021/07/26 01:34:36;;;;;;;;;;;;;;;21.83;61.17;99416.45;1873522;76;20102;-62
2021/07/26 01:37:11;;;;;;;;;;;;;;;21.81;61.22;99423.51;1892862;76;20097;-63
2021/07/26 01:39:45;;;;;;;;;;;;;;;21.79;61.40;99423.99;1873499;76;20148;-63
2021/07/26 01:42:24;;;;;;;;;;;;;;;21.78;61.31;99419.66;1873258;76;20359;-63
2021/07/26 01:44:59;;;;;;;;;;;;;;;21.79;61.28;99419.20;1873489;76;20363;-63
2021/07/26 01:47:34;;;;;;;;;;;;;;;21.78;61.42;99424.91;1873491;76;20347;-62
2021/07/26 01:50:10;;;;;;;;;;;;;;;21.78;61.15;99426.22;1892806;76;20207;-63
2021/07/26 01:52:51;;;;;;;;;;;;;;;21.79;61.10;99423.14;1872558;76;20093;-62
2021/07/26 01:55:27;;;;;;;;;;;;;;;21.79;60.96;99417.42;1892778;76;20097;-63
2021/07/26 01:58:02;;;;;;;;;;;;;;;21.80;60.69;99411.25;1873491;76;20211;-63
2021/07/26 02:00:36;;;;;;;;;;;;;;;21.81;60.58;99418.25;1873507;76;20208;-63
2021/07/26 02:03:15;;;;;;;;;;;;;;;21.84;60.50;99423.41;1873290;76;20097;-62
2021/07/26 02:05:50;;;;;;;;;;;;;;;21.85;60.45;99422.53;1873466;76;20344;-64
2021/07/26 02:08:25;;;;;;;;;;;;;;;21.87;60.34;99424.64;1892824;76;20093;-62
2021/07/26 02:11:00;;;;;;;;;;;;;;;21.91;60.08;99419.32;1892770;76;20096;-63
2021/07/26 02:13:35;;;;;;;;;;;;;;;21.93;60.27;99426.69;1892816;76;20204;-62
2021/07/26 02:16:30;;;;;;;;;;;;;;;21.94;60.11;99422.71;1892795;76;20204;-64
2021/07/26 02:19:05;;;;;;;;;;;;;;;21.94;60.13;99421.40;1892786;76;20216;-64
2021/07/26 02:21:40;;;;;;;;;;;;;;;21.94;60.22;99421.86;1873497;76;20212;-62
2021/07/26 02:24:15;;;;;;;;;;;;;;;21.93;60.19;99424.95;1873400;76;20344;-63
2021/07/26 02:27:09;;;;;;;;;;;;;;;21.91;59.92;99424.58;1873292;76;20098;-62
2021/07/26 02:29:43;;;;;;;;;;;;;;;21.93;59.95;99439.40;1873508;76;20212;-63
2021/07/26 02:32:18;;;;;;;;;;;;;;;21.94;59.96;99427.11;1873516;76;20208;-63
2021/07/26 02:34:53;;;;;;;;;;;;;;;21.96;59.59;99429.25;1892763;76;20147;-62
2021/07/26 02:37:28;;;;;;;;;;;;;;;21.99;59.37;99428.70;1892804;76;20199;-63
2021/07/26 02:40:03;;;;;;;;;;;;;;;22.00;59.44;99430.87;1892803;76;20092;-63
2021/07/26 02:42:37;;;;;;;;;;;;;;;22.01;59.37;99429.52;1873499;76;20208;-62
2021/07/26 02:45:18;;;;;;;;;;;;;;;22.03;59.21;99437.34;1892781;76;20358;-63
2021/07/26 02:47:53;;;;;;;;;;;;;;;22.06;58.92;99434.66;1892827;76;20092;-64
2021/07/26 02:50:28;;;;;;;;;;;;;;;22.11;58.73;99438.02;1892802;76;20093;-62
2021/07/26 02:53:22;;;;;;;;;;;;;;;22.16;58.21;99441.38;1873542;76;20097;-64
2021/07/26 02:55:56;;;;;;;;;;;;;;;22.22;57.76;99443.84;1873485;76;20097;-63
2021/07/26 02:58:31;;;;;;;;;;;;;;;22.28;57.58;99439.71;1873469;76;20097;-63
2021/07/26 03:01:24;;;;;;;;;;;;;;;22.33;57.49;99443.53;1873563;76;20102;-63
2021/07/26 03:04:00;;;;;;;;;;;;;;;22.36;57.53;99442.58;1873489;76;20212;-63
2021/07/26 03:06:36;;;;;;;;;;;;;;;22.38;57.12;99440.31;1873536;76;20093;-63
2021/07/26 03:09:11;;;;;;;;;;;;;;;22.39;57.39;99441.16;1873348;76;20090;-62
2021/07/26 03:11:46;;;;;;;;;;;;;;;22.36;57.21;99442.58;1873427;76;20093;-63
2021/07/26 03:14:20;;;;;;;;;;;;;;;22.33;57.45;99443.06;1873456;76;20208;-62
2021/07/26 03:16:56;;;;;;;;;;;;;;;22.31;56.98;99442.28;1873362;76;20093;-63
2021/07/26 03:19:37;;;;;;;;;;;;;;;22.31;57.42;99440.96;1892776;76;20354;-63
2021/07/26 03:22:39;;;;;;;;;;;;;;;22.31;57.35;99437.44;1892806;76;20215;-63
2021/07/26 03:25:14;;;;;;;;;;;;;;;22.32;57.55;99436.09;1873503;76;20212;-63
2021/07/26 03:27:49;;;;;;;;;;;;;;;22.33;57.35;99440.44;1892775;76;20184;-62
2021/07/26 03:30:24;;;;;;;;;;;;;;;22.35;57.45;99447.44;1873436;76;20094;-64
2021/07/26 03:32:58;;;;;;;;;;;;;;;22.36;57.36;99446.52;1873501;76;20215;-62
2021/07/26 03:35:33;;;;;;;;;;;;;;;22.39;57.15;99446.42;1873455;76;20094;-64
2021/07/26 03:38:08;;;;;;;;;;;;;;;22.43;57.41;99454.64;1873459;76;20352;-62
2021/07/26 03:40:43;;;;;;;;;;;;;;;22.43;57.53;99450.23;1892764;76;20101;-63
2021/07/26 03:43:38;;;;;;;;;;;;;;;22.44;57.42;99455.92;1884819;75;20148;-63
2021/07/26 03:46:12;;;;;;;;;;;;;;;22.46;57.58;99461.13;1873442;76;20208;-63
2021/07/26 03:48:47;;;;;;;;;;;;;;;22.47;57.43;99458.91;1873490;76;20093;-64
2021/07/26 03:51:21;;;;;;;;;;;;;;;22.49;57.13;99459.70;1873492;76;20176;-63
2021/07/26 03:53:56;;;;;;;;;;;;;;;22.53;57.60;99463.98;1873416;76;20101;-63
2021/07/26 03:56:31;;;;;;;;;;;;;;;22.53;57.53;99462.66;1873628;76;20094;-63
2021/07/26 03:59:08;;;;;;;;;;;;;;;22.54;57.60;99465.69;1873410;76;20098;-64
2021/07/26 04:01:43;;;;;;;;;;;;;;;22.57;57.60;99468.26;1892797;76;20211;-64
2021/07/26 04:04:17;;;;;;;;;;;;;;;22.62;57.70;99470.30;1873465;76;20371;-64
2021/07/26 04:06:56;;;;;;;;;;;;;;;22.64;57.94;99475.03;1873465;76;20470;-62
2021/07/26 04:10:01;;;;;;;;;;;;;;;22.68;57.72;99471.88;1892580;76;20374;-63
2021/07/26 04:12:34;;;;;;;;;;;;;;;22.69;57.74;99475.75;1873414;76;20105;-63
2021/07/26 04:15:14;;;;;;;;;;;;;;;22.72;57.66;99470.42;1837163;77;20210;-63
2021/07/26 04:17:48;;;;;;;;;;;;;;;22.78;57.74;99471.14;1892779;76;20093;-64
2021/07/26 04:20:23;;;;;;;;;;;;;;;22.83;57.86;99468.77;1873510;76;20211;-63
2021/07/26 04:22:57;;;;;;;;;;;;;;;22.90;57.52;99474.72;1892805;76;20204;-62
2021/07/26 04:25:32;;;;;;;;;;;;;;;22.94;57.25;99475.00;1892811;76;20211;-63
2021/07/26 04:28:26;;;;;;;;;;;;;;;23.01;57.27;99473.94;1883955;76;20137;-65
2021/07/26 04:31:01;;;;;;;;;;;;;;;23.09;57.01;99476.33;1873480;76;20459;-64
2021/07/26 04:33:36;;;;;;;;;;;;;;;23.15;57.25;99473.48;1892738;76;20097;-65
2021/07/26 04:36:11;;;;;;;;;;;;;;;23.16;57.34;99472.59;1873380;76;20093;-64
2021/07/26 04:38:51;;;;;;;;;;;;;;;23.18;57.44;99470.31;1892719;76;20101;-64
2021/07/26 04:41:26;;;;;;;;;;;;;;;23.24;57.48;99472.34;1873453;76;20094;-63
2021/07/26 04:44:06;;;;;;;;;;;;;;;23.29;57.47;99467.79;1872622;76;20220;-63
2021/07/26 04:46:41;;;;;;;;;;;;;;;23.36;57.84;99474.58;1892881;76;20203;-62
2021/07/26 04:49:15;;;;;;;;;;;;;;;23.45;58.06;99470.77;1873479;76;20205;-63
2021/07/26 04:51:50;;;;;;;;;;;;;;;23.55;58.39;99478.30;1873457;76;20094;-64
2021/07/26 04:54:30;;;;;;;;;;;;;;;23.63;58.21;99475.40;1872555;76;20212;-63
2021/07/26 04:57:05;;;;;;;;;;;;;;;23.68;57.25;99473.94;1873416;76;20093;-63
2021/07/26 04:59:39;;;;;;;;;;;;;;;23.75;57.55;99474.16;1873463;76;20094;-64
2021/07/26 05:02:14;;;;;;;;;;;;;;;23.82;57.76;99470.41;1853582;77;20099;-64
2021/07/26 05:04:57;;;;;;;;;;;;;;;23.94;57.58;99480.95;1872603;76;20204;-64
2021/07/26 05:07:32;;;;;;;;;;;;;;;23.99;57.56;99472.42;1873471;76;20097;-63
2021/07/26 05:10:11;;;;;;;;;;;;;;;24.08;57.85;99477.38;1873495;76;20093;-65
2021/07/26 05:12:46;;;;;;;;;;;;;;;24.17;57.76;99478.80;1873344;76;20097;-63
2021/07/26 05:15:39;;;;;;;;;;;;;;;24.25;57.70;99466.22;1873410;76;20356;-64
2021/07/26 05:18:19;;;;;;;;;;;;;;;24.32;57.76;99466.38;1872571;76;20212;-66
2021/07/26 05:20:54;;;;;;;;;;;;;;;24.41;57.47;99463.40;1873447;76;20093;-64
2021/07/26 05:23:28;;;;;;;;;;;;;;;24.53;57.83;99460.80;1873416;76;20140;-64
2021/07/26 05:26:05;;;;;;;;;;;;;;;24.67;57.13;99465.53;1892764;76;20253;-64
2021/07/26 05:29:01;;;;;;;;;;;;;;;24.76;55.96;99459.91;1873279;76;20102;-64
2021/07/26 05:31:35;;;;;;;;;;;;;;;24.87;56.18;99462.97;1873380;76;20102;-62
2021/07/26 05:34:16;;;;;;;;;;;;;;;24.98;54.17;99459.04;1872586;76;20098;-65
2021/07/26 05:36:51;;;;;;;;;;;;;;;25.08;55.01;99461.70;1873406;76;20454;-64
2021/07/26 05:39:27;;;;;;;;;;;;;;;25.24;54.54;99472.09;1892861;76;20097;-65
2021/07/26 05:42:01;;;;;;;;;;;;;;;25.39;53.85;99469.28;1873446;76;20093;-65
2021/07/26 05:44:56;;;;;;;;;;;;;;;26.41;52.00;99472.35;1892744;76;20211;-64
2021/07/26 05:47:50;;;;;;;;;;;;;;;28.12;46.56;99483.43;1873452;76;20212;-65
2021/07/26 05:50:31;;;;;;;;;;;;;;;29.11;43.40;99478.95;1872590;76;20212;-66
2021/07/26 05:53:05;;;;;;;;;;;;;;;29.72;42.48;99491.34;1873529;76;20595;-65
2021/07/26 05:55:40;;;;;;;;;;;;;;;30.34;41.93;99492.95;1873477;76;20098;-64
2021/07/26 05:58:14;;;;;;;;;;;;;;;31.14;39.81;99495.39;1892940;76;20097;-65
2021/07/26 06:03:24;;;;;;;;;;;;;;;31.76;38.51;99509.53;1873600;76;20355;-65
2021/07/26 06:06:01;;;;;;;;;;;;;;;32.13;38.57;99503.02;1873421;76;20101;-64
2021/07/26 06:08:35;;;;;;;;;;;;;;;32.56;37.02;99503.53;1892777;76;20092;-65
2021/07/26 06:11:30;;;;;;;;;;;;;;;32.55;36.73;99509.86;1892708;76;20362;-62
2021/07/26 06:14:06;;;;;;;;;;;;;;;32.84;36.24;99511.75;1873394;76;20462;-65
2021/07/26 06:16:45;;;;;;;;;;;;;;;33.05;36.30;99515.19;1892745;76;20143;-65
2021/07/26 06:19:38;;;;;;;;;;;;;;;33.25;35.20;99519.06;1892731;76;20302;-63
2021/07/26 06:22:17;;;;;;;;;;;;;;;33.29;35.54;99507.19;1873224;76;20101;-64
2021/07/26 06:24:50;;;;;;;;;;;;;;;33.58;34.27;99521.56;1873628;76;20211;-64
2021/07/26 06:27:24;;;;;;;;;;;;;;;33.88;33.80;99519.70;1873454;76;20217;-64
2021/07/26 06:29:59;;;;;;;;;;;;;;;33.87;33.04;99534.08;1873447;76;20102;-64
2021/07/26 06:32:35;;;;;;;;;;;;;;;33.62;33.68;99535.94;1873448;76;20098;-64
2021/07/26 06:35:28;;;;;;;;;;;;;;;33.63;34.20;99541.65;1873557;76;20204;-64
2021/07/26 06:38:03;;;;;;;;;;;;;;;33.78;33.41;99546.33;1873408;76;20180;-65
2021/07/26 06:40:37;;;;;;;;;;;;;;;33.86;33.68;99542.57;1873430;76;20094;-64
2021/07/26 06:43:31;;;;;;;;;;;;;;;34.06;33.47;99545.55;1892687;76;20215;-64
2021/07/26 06:46:06;;;;;;;;;;;;;;;34.15;32.95;99547.56;1873436;76;20208;-66
2021/07/26 06:48:41;;;;;;;;;;;;;;;34.07;32.57;99534.77;1873372;76;20157;-67
2021/07/26 06:51:16;;;;;;;;;;;;;;;34.38;31.79;99548.94;1892744;76;20096;-65
2021/07/26 06:53:50;;;;;;;;;;;;;;;35.10;31.42;99541.36;1873447;76;20098;-65
2021/07/26 06:56:25;;;;;;;;;;;;;;;35.42;30.77;99558.00;1892861;76;20208;-65
2021/07/26 06:58:59;;;;;;;;;;;;;;;35.80;30.16;99570.05;1873464;76;20098;-66
2021/07/26 07:01:34;;;;;;;;;;;;;;;35.81;30.31;99552.97;1892789;76;20454;-66
2021/07/26 07:04:10;;;;;;;;;;;;;;;36.34;29.34;99565.50;1873308;76;20098;-63
2021/07/26 07:07:05;;;;;;;;;;;;;;;36.15;29.93;99574.28;1892727;76;20207;-64
2021/07/26 07:09:59;;;;;;;;;;;;;;;35.88;30.12;99566.73;1892714;76;20211;-63
2021/07/26 07:12:34;;;;;;;;;;;;;;;35.85;30.34;99579.94;1892760;76;20211;-64
2021/07/26 07:15:09;;;;;;;;;;;;;;;35.28;30.91;99581.08;1892765;76;20096;-64
2021/07/26 07:18:03;;;;;;;;;;;;;;;34.43;32.14;99577.07;1892672;76;20219;-65
2021/07/26 07:20:37;;;;;;;;;;;;;;;34.11;32.60;99579.56;1892772;76;20203;-63
2021/07/26 07:23:12;;;;;;;;;;;;;;;34.06;33.18;99581.71;1892871;76;20092;-64
2021/07/26 07:25:46;;;;;;;;;;;;;;;34.86;32.04;99572.81;1892764;76;20461;-66
2021/07/26 07:28:20;;;;;;;;;;;;;;;35.91;30.66;99572.69;1873442;76;20097;-65
2021/07/26 07:30:55;;;;;;;;;;;;;;;37.07;28.72;99586.43;1873453;76;20094;-64
2021/07/26 07:33:29;;;;;;;;;;;;;;;38.13;27.31;99587.03;1873488;76;20204;-64
2021/07/26 07:36:05;;;;;;;;;;;;;;;38.48;26.44;99581.52;1892786;76;20212;-63
2021/07/26 07:39:00;;;;;;;;;;;;;;;38.17;26.97;99597.89;1873406;76;20204;-64
2021/07/26 07:41:35;;;;;;;;;;;;;;;37.16;28.51;99585.61;1873480;76;20094;-64
2021/07/26 07:44:34;;;;;;;;;;;;;;;37.41;27.92;99584.75;1872746;76;20204;-65
2021/07/26 07:47:11;;;;;;;;;;;;;;;38.12;27.64;99594.78;1873442;76;20213;-63
2021/07/26 07:49:45;;;;;;;;;;;;;;;38.37;26.88;99600.52;1892751;76;20097;-64
2021/07/26 07:52:40;;;;;;;;;;;;;;;37.89;27.11;99593.37;1873254;76;20097;-65
2021/07/26 07:55:14;;;;;;;;;;;;;;;37.90;27.40;99598.59;1873443;76;20208;-65
2021/07/26 07:58:07;;;;;;;;;;;;;;;38.84;26.52;99605.43;1873405;76;20200;-65
2021/07/26 08:00:42;;;;;;;;;;;;;;;37.71;28.00;99604.86;1892781;76;20351;-65
2021/07/26 08:03:17;;;;;;;;;;;;;;;36.94;28.31;99600.09;1873433;76;20352;-65
2021/07/26 08:05:52;;;;;;;;;;;;;;;36.14;29.63;99603.50;1873399;76;20177;-65
2021/07/26 08:08:46;;;;;;;;;;;;;;;35.18;31.35;99569.75;1872310;75;20152;-63
2021/07/26 08:11:59;;;;;;;;;;;;;;;35.39;29.72;99591.31;1874697;75;20410;-66
2021/07/26 08:14:33;;;;;;;;;;;;;;;35.47;28.56;99582.63;1873473;76;20212;-65
2021/07/26 08:17:07;;;;;;;;;;;;;;;36.25;28.14;99591.33;1892903;76;20450;-64
2021/07/26 08:19:42;;;;;;;;;;;;;;;37.52;26.34;99590.86;1873457;76;20097;-64
2021/07/26 08:22:16;;;;;;;;;;;;;;;37.54;24.65;99594.77;1892768;76;20454;-65
2021/07/26 08:24:57;;;;;;;;;;;;;;;37.05;26.10;99593.81;1892766;76;20351;-65
2021/07/26 08:27:57;;;;;;;;;;;;;;;37.13;26.33;99599.36;1892823;76;20100;-66
2021/07/26 08:30:34;;;;;;;;;;;;;;;37.96;25.81;99593.12;1873504;76;20094;-65
2021/07/26 08:33:08;;;;;;;;;;;;;;;38.08;25.58;99597.91;1892718;76;20207;-64
2021/07/26 08:35:49;;;;;;;;;;;;;;;38.30;24.71;99595.39;1872592;76;20098;-63
2021/07/26 08:38:29;;;;;;;;;;;;;;;37.48;25.30;99609.63;1872607;76;20098;-64
2021/07/26 08:41:04;;;;;;;;;;;;;;;36.01;26.61;99590.23;1873482;76;20093;-63
2021/07/26 08:43:38;;;;;;;;;;;;;;;35.25;27.58;99584.88;1873442;76;20209;-63
2021/07/26 08:46:18;;;;;;;;;;;;;;;35.56;27.73;99581.00;1873441;76;20211;-63
2021/07/26 08:49:13;;;;;;;;;;;;;;;36.41;26.56;99589.50;1873378;76;20101;-64
2021/07/26 08:51:55;;;;;;;;;;;;;;;36.61;26.08;99590.48;1872696;76;20208;-65
2021/07/26 08:54:52;;;;;;;;;;;;;;;36.55;25.46;99595.88;1873383;76;20200;-63
2021/07/26 08:57:47;;;;;;;;;;;;;;;35.25;27.52;99578.16;1873362;76;20205;-65
2021/07/26 09:00:23;;;;;;;;;;;;;;;34.75;27.96;99589.28;1873345;76;20094;-64
2021/07/26 09:02:58;;;;;;;;;;;;;;;34.24;28.89;99591.03;1873452;76;20204;-64
2021/07/26 09:05:32;;;;;;;;;;;;;;;33.41;29.92;99570.48;1873462;76;20340;-65
2021/07/26 09:08:07;;;;;;;;;;;;;;;33.15;29.94;99592.94;1892791;76;20096;-64
2021/07/26 09:10:44;;;;;;;;;;;;;;;32.86;31.06;99579.34;1873268;76;20101;-66
2021/07/26 09:13:28;;;;;;;;;;;;;;;32.63;31.61;99553.41;1873434;76;20352;-64
2021/07/26 09:16:17;;;;;;;;;;;;;;;32.32;31.60;99568.05;1892664;76;20101;-65
2021/07/26 09:19:02;;;;;;;;;;;;;;;32.00;32.13;99564.42;1873425;76;20355;-64
2021/07/26 09:21:52;;;;;;;;;;;;;;;31.90;32.75;99560.15;1892747;76;20211;-64
2021/07/26 09:24:29;;;;;;;;;;;;;;;31.63;32.92;99546.02;1892710;76;20101;-64
2021/07/26 09:27:23;;;;;;;;;;;;;;;31.93;32.98;99541.73;1892707;76;20212;-66
2021/07/26 09:30:01;;;;;;;;;;;;;;;31.94;32.32;99548.84;1892793;76;20204;-66
2021/07/26 09:32:56;;;;;;;;;;;;;;;31.52;32.30;99542.71;1892791;76;20100;-65
2021/07/26 09:35:32;;;;;;;;;;;;;;;31.35;33.15;99534.00;1892746;76;20096;-65
2021/07/26 09:38:07;;;;;;;;;;;;;;;31.36;33.59;99538.36;1892736;76;20100;-66
2021/07/26 09:40:48;;;;;;;;;;;;;;;31.53;33.63;99535.95;1872562;76;20093;-66
2021/07/26 09:43:25;;;;;;;;;;;;;;;31.65;33.54;99534.74;1873408;76;20208;-64
2021/07/26 09:46:07;;;;;;;;;;;;;;;31.70;32.96;99540.17;1892968;76;20113;-65
2021/07/26 09:49:14;;;;;;;;;;;;;;;31.68;33.42;99536.75;1892666;76;20101;-64
2021/07/26 09:52:08;;;;;;;;;;;;;;;31.52;33.27;99534.26;1873414;76;20208;-65
2021/07/26 09:54:52;;;;;;;;;;;;;;;31.42;32.05;99532.28;1873309;76;20093;-65
2021/07/26 09:58:06;;;;;;;;;;;;;;;31.19;33.37;99531.09;1883719;75;20159;-64
2021/07/26 10:00:59;;;;;;;;;;;;;;;30.57;34.42;99536.80;1873334;76;20348;-65
2021/07/26 10:03:38;;;;;;;;;;;;;;;29.99;35.07;99526.06;1892687;76;20342;-65
2021/07/26 10:06:10;;;;;;;;;;;;;;;29.97;35.20;99524.00;1873579;76;20140;-63
2021/07/26 10:08:47;;;;;;;;;;;;;;;30.11;35.05;99525.81;1885119;76;20213;-65
2021/07/26 10:11:21;;;;;;;;;;;;;;;30.18;34.49;99534.30;1873421;76;20216;-65
2021/07/26 10:13:56;;;;;;;;;;;;;;;30.25;34.14;99524.53;1892759;76;20096;-65
2021/07/26 10:16:50;;;;;;;;;;;;;;;30.45;34.19;99524.61;1873361;76;20102;-63
2021/07/26 10:19:25;;;;;;;;;;;;;;;30.56;34.31;99523.97;1892766;76;20203;-64
2021/07/26 10:22:00;;;;;;;;;;;;;;;30.58;33.95;99534.05;1873409;76;20343;-64
2021/07/26 10:25:00;;;;;;;;;;;;;;;30.61;34.24;99523.68;1873287;76;20212;-64
2021/07/26 10:27:57;;;;;;;;;;;;;;;30.79;34.58;99530.50;1873373;76;20208;-64
2021/07/26 10:30:51;;;;;;;;;;;;;;;30.89;34.45;99526.81;1873417;76;20458;-65
2021/07/26 10:33:26;;;;;;;;;;;;;;;31.04;34.13;99527.16;1873336;76;20102;-65
2021/07/26 10:36:01;;;;;;;;;;;;;;;31.25;34.02;99519.56;1892864;76;20096;-65
2021/07/26 10:38:45;;;;;;;;;;;;;;;31.45;33.47;99519.61;1873469;76;20204;-65
2021/07/26 10:42:00;;;;;;;;;;;;;;;31.47;33.13;99511.48;1873065;75;20490;-63
2021/07/26 10:44:43;;;;;;;;;;;;;;;31.43;33.15;99517.52;1873231;76;20101;-63
2021/07/26 10:47:18;;;;;;;;;;;;;;;31.44;32.12;99505.87;1873463;76;20344;-64
2021/07/26 10:50:10;;;;;;;;;;;;;;;31.12;32.93;99522.66;1873363;76;20094;-65
2021/07/26 10:53:04;;;;;;;;;;;;;;;30.89;33.42;99516.16;1873410;76;20101;-63
2021/07/26 10:56:09;;;;;;;;;;;;;;;30.98;33.04;99504.87;1873441;76;20204;-63
2021/07/26 10:59:03;;;;;;;;;;;;;;;31.03;32.81;99513.91;1872540;76;20154;-64
2021/07/26 11:02:03;;;;;;;;;;;;;;;30.89;33.17;99508.16;1873377;76;20351;-65
2021/07/26 11:04:40;;;;;;;;;;;;;;;30.71;33.67;99510.16;1873301;76;20097;-63
2021/07/26 11:07:35;;;;;;;;;;;;;;;30.69;33.27;99498.73;1873440;76;20102;-64
2021/07/26 11:10:53;;;;;;;;;;;;;;;31.00;32.39;99486.12;1873437;76;20208;-65
2021/07/26 11:13:49;;;;;;;;;;;;;;;31.19;31.41;99491.09;1873390;76;20216;-64
2021/07/26 11:17:04;;;;;;;;;;;;;;;31.14;31.88;99498.94;1892721;76;20207;-63
2021/07/26 11:19:52;;;;;;;;;;;;;;;31.10;33.21;99504.08;1873545;76;20204;-64
2021/07/26 11:22:48;;;;;;;;;;;;;;;30.81;34.13;99496.63;1873183;76;20102;-65
2021/07/26 11:25:23;;;;;;;;;;;;;;;30.90;33.72;99486.71;1873433;76;20343;-66
2021/07/26 11:27:57;;;;;;;;;;;;;;;30.91;33.58;99489.78;1873466;76;20208;-65
2021/07/26 11:30:32;;;;;;;;;;;;;;;31.01;33.29;99478.01;1873496;76;20262;-65
2021/07/26 11:33:07;;;;;;;;;;;;;;;31.09;33.06;99491.72;1873346;76;20098;-65
2021/07/26 11:35:42;;;;;;;;;;;;;;;31.22;31.72;99479.77;1892742;76;20207;-65
2021/07/26 11:38:17;;;;;;;;;;;;;;;31.19;31.36;99495.94;1873461;76;20212;-64
2021/07/26 11:40:51;;;;;;;;;;;;;;;30.91;32.52;99488.44;1873457;76;20216;-65
2021/07/26 11:43:36;;;;;;;;;;;;;;;31.00;33.21;99482.13;1873431;76;20347;-65
2021/07/26 11:46:10;;;;;;;;;;;;;;;31.11;33.13;99483.60;1873647;76;20097;-66
2021/07/26 11:49:04;;;;;;;;;;;;;;;31.08;33.02;99487.80;1892708;76;20096;-65
2021/07/26 11:51:40;;;;;;;;;;;;;;;30.75;32.99;99486.34;1873191;76;20098;-65
2021/07/26 11:54:14;;;;;;;;;;;;;;;30.65;33.45;99481.22;1873385;76;20208;-63
2021/07/26 11:56:49;;;;;;;;;;;;;;;30.96;31.94;99492.11;1873383;76;20097;-64
2021/07/26 11:59:24;;;;;;;;;;;;;;;30.87;32.76;99476.74;1873404;76;20097;-66
2021/07/26 12:02:01;;;;;;;;;;;;;;;30.81;32.97;99470.42;1892850;76;20203;-64
2021/07/26 12:04:37;;;;;;;;;;;;;;;30.66;33.27;99474.95;1873443;76;20208;-65
2021/07/26 12:07:11;;;;;;;;;;;;;;;30.86;32.84;99475.89;1873429;76;20208;-64
2021/07/26 12:09:50;;;;;;;;;;;;;;;31.26;31.98;99469.73;1873481;76;20204;-63
2021/07/26 12:12:25;;;;;;;;;;;;;;;31.57;31.49;99469.89;1873469;76;20212;-66
2021/07/26 12:15:01;;;;;;;;;;;;;;;31.73;31.03;99478.58;1873445;76;20209;-65
2021/07/26 12:18:12;;;;;;;;;;;;;;;31.67;30.69;99475.45;1892741;76;20101;-64
2021/07/26 12:21:06;;;;;;;;;;;;;;;31.48;30.33;99474.53;1873439;76;20209;-65
2021/07/26 12:23:44;;;;;;;;;;;;;;;31.55;30.29;99471.83;1892738;76;20093;-65
2021/07/26 12:26:40;;;;;;;;;;;;;;;31.70;30.53;99470.78;1873413;76;20204;-63
2021/07/26 12:29:14;;;;;;;;;;;;;;;31.72;31.65;99454.65;1873420;76;20208;-62
2021/07/26 12:31:52;;;;;;;;;;;;;;;31.50;31.84;99463.28;1892753;76;20351;-65
2021/07/26 12:34:28;;;;;;;;;;;;;;;31.45;31.59;99460.92;1873257;76;20098;-65
2021/07/26 12:37:22;;;;;;;;;;;;;;;31.74;30.38;99454.91;1873429;76;20208;-64
2021/07/26 12:40:16;;;;;;;;;;;;;;;31.91;28.64;99470.27;1872498;76;20097;-64
2021/07/26 12:43:12;;;;;;;;;;;;;;;31.97;29.47;99455.17;1892742;76;20211;-63
2021/07/26 12:46:05;;;;;;;;;;;;;;;32.03;28.24;99460.56;1873458;76;20208;-64
2021/07/26 12:48:41;;;;;;;;;;;;;;;31.61;29.28;99454.55;1873473;76;20204;-64
2021/07/26 12:51:36;;;;;;;;;;;;;;;31.75;29.91;99452.64;1873432;76;20209;-65
2021/07/26 12:54:12;;;;;;;;;;;;;;;32.02;29.66;99451.70;1873277;76;20101;-65
2021/07/26 12:56:47;;;;;;;;;;;;;;;32.28;29.39;99445.84;1873458;76;20450;-63
2021/07/26 12:59:28;;;;;;;;;;;;;;;32.47;27.65;99453.90;1873391;76;20098;-64
2021/07/26 13:02:04;;;;;;;;;;;;;;;32.11;26.84;99441.72;1873518;76;20093;-64
2021/07/26 13:04:58;;;;;;;;;;;;;;;31.90;27.58;99450.70;1892671;76;20354;-64
2021/07/26 13:07:33;;;;;;;;;;;;;;;32.03;26.65;99450.73;1892778;76;20097;-65
2021/07/26 13:10:08;;;;;;;;;;;;;;;32.23;26.34;99444.83;1873473;76;20204;-66
2021/07/26 13:13:03;;;;;;;;;;;;;;;31.68;28.73;99430.00;1873377;76;20101;-64
2021/07/26 13:15:39;;;;;;;;;;;;;;;31.52;28.22;99444.00;1873442;76;20212;-64
2021/07/26 13:18:14;;;;;;;;;;;;;;;31.42;29.02;99438.91;1873438;76;20213;-64
2021/07/26 13:21:09;;;;;;;;;;;;;;;31.48;29.91;99425.18;1873262;76;20102;-65
2021/07/26 13:23:45;;;;;;;;;;;;;;;31.50;30.62;99432.12;1873565;76;20212;-65
2021/07/26 13:26:20;;;;;;;;;;;;;;;31.62;30.78;99427.73;1892782;76;20207;-65
2021/07/26 13:28:57;;;;;;;;;;;;;;;31.60;30.43;99424.34;1873466;76;20576;-65
2021/07/26 13:31:33;;;;;;;;;;;;;;;31.56;30.85;99429.50;1873472;76;20209;-65
2021/07/26 13:34:08;;;;;;;;;;;;;;;31.60;30.88;99427.02;1873379;76;20093;-65
2021/07/26 13:36:44;;;;;;;;;;;;;;;31.66;31.10;99435.92;1873691;76;20097;-63
2021/07/26 13:39:20;;;;;;;;;;;;;;;31.62;31.36;99433.08;1873437;76;20216;-65
2021/07/26 13:41:55;;;;;;;;;;;;;;;31.58;31.07;99438.27;1873422;76;20208;-63
2021/07/26 13:44:29;;;;;;;;;;;;;;;31.62;30.97;99438.89;1892747;76;20180;-64
2021/07/26 13:47:05;;;;;;;;;;;;;;;31.68;30.17;99439.83;1873231;76;20351;-64
2021/07/26 13:49:40;;;;;;;;;;;;;;;31.44;29.82;99433.85;1873429;76;20208;-64
2021/07/26 13:52:14;;;;;;;;;;;;;;;31.21;30.86;99438.52;1873451;76;20208;-65
2021/07/26 13:54:50;;;;;;;;;;;;;;;31.22;31.06;99432.22;1892736;76;20100;-64
2021/07/26 13:57:24;;;;;;;;;;;;;;;31.20;30.25;99444.34;1892777;76;20211;-63